sensor_id;sensor_type;location;lat;lon;timestamp;P1;durP1;ratioP1;P2;durP2;ratioP2
9176;SDS011;4623;54.310;10.112;2022-11-15T00:01:44;26.30;;;21.40;;
9176;SDS011;4623;54.310;10.112;2022-11-15T00:04:10;26.37;;;20.17;;
9176;SDS011;4623;54.310;10.112;2022-11-15T00:06:35;24.40;;;20.37;;
9176;SDS011;4623;54.310;10.112;2022-11-15T00:09:01;27.00;;;20.87;;
9176;SDS011;4623;54.310;10.112;2022-11-15T00:11:28;28.33;;;22.23;;
9176;SDS011;4623;54.310;10.112;2022-11-15T00:13:57;30.10;;;22.33;;
9176;SDS011;4623;54.310;10.112;2022-11-15T00:16:23;27.00;;;21.20;;
9176;SDS011;4623;54.310;10.112;2022-11-15T00:18:49;27.30;;;21.67;;
9176;SDS011;4623;54.310;10.112;2022-11-15T00:21:15;28.27;;;21.07;;
9176;SDS011;4623;54.310;10.112;2022-11-15T00:23:42;28.90;;;22.83;;
9176;SDS011;4623;54.310;10.112;2022-11-15T00:26:11;27.57;;;22.33;;
9176;SDS011;4623;54.310;10.112;2022-11-15T00:28:38;28.03;;;22.50;;
9176;SDS011;4623;54.310;10.112;2022-11-15T00:31:05;32.97;;;23.47;;
9176;SDS011;4623;54.310;10.112;2022-11-15T00:33:32;27.50;;;21.93;;
9176;SDS011;4623;54.310;10.112;2022-11-15T00:36:02;30.53;;;23.37;;
9176;SDS011;4623;54.310;10.112;2022-11-15T00:38:33;28.77;;;21.83;;
9176;SDS011;4623;54.310;10.112;2022-11-15T00:40:59;32.30;;;23.93;;
9176;SDS011;4623;54.310;10.112;2022-11-15T00:43:25;27.93;;;21.90;;
9176;SDS011;4623;54.310;10.112;2022-11-15T00:45:51;28.63;;;22.37;;
9176;SDS011;4623;54.310;10.112;2022-11-15T00:48:16;32.90;;;25.27;;
9176;SDS011;4623;54.310;10.112;2022-11-15T00:50:42;30.13;;;23.93;;
9176;SDS011;4623;54.310;10.112;2022-11-15T00:53:07;29.73;;;24.53;;
9176;SDS011;4623;54.310;10.112;2022-11-15T00:55:33;28.63;;;22.73;;
9176;SDS011;4623;54.310;10.112;2022-11-15T00:57:59;31.70;;;24.07;;
9176;SDS011;4623;54.310;10.112;2022-11-15T01:00:24;30.60;;;23.63;;
9176;SDS011;4623;54.310;10.112;2022-11-15T01:02:50;29.43;;;23.07;;
9176;SDS011;4623;54.310;10.112;2022-11-15T01:05:15;31.80;;;23.80;;
9176;SDS011;4623;54.310;10.112;2022-11-15T01:07:41;27.33;;;21.20;;
9176;SDS011;4623;54.310;10.112;2022-11-15T01:10:07;30.97;;;23.23;;
9176;SDS011;4623;54.310;10.112;2022-11-15T01:12:33;29.57;;;23.50;;
9176;SDS011;4623;54.310;10.112;2022-11-15T01:14:59;28.20;;;22.20;;
9176;SDS011;4623;54.310;10.112;2022-11-15T01:17:24;28.50;;;22.70;;
9176;SDS011;4623;54.310;10.112;2022-11-15T01:19:50;29.77;;;23.87;;
9176;SDS011;4623;54.310;10.112;2022-11-15T01:22:16;31.03;;;23.30;;
9176;SDS011;4623;54.310;10.112;2022-11-15T01:24:41;29.67;;;22.27;;
9176;SDS011;4623;54.310;10.112;2022-11-15T01:27:07;27.87;;;22.47;;
9176;SDS011;4623;54.310;10.112;2022-11-15T01:29:33;27.90;;;22.40;;
9176;SDS011;4623;54.310;10.112;2022-11-15T01:31:59;31.10;;;25.87;;
9176;SDS011;4623;54.310;10.112;2022-11-15T01:34:24;28.87;;;21.47;;
9176;SDS011;4623;54.310;10.112;2022-11-15T01:36:50;32.90;;;24.07;;
9176;SDS011;4623;54.310;10.112;2022-11-15T01:39:16;30.33;;;23.77;;
9176;SDS011;4623;54.310;10.112;2022-11-15T01:41:42;27.40;;;22.87;;
9176;SDS011;4623;54.310;10.112;2022-11-15T01:47:13;26.63;;;21.33;;
9176;SDS011;4623;54.310;10.112;2022-11-15T01:49:49;31.63;;;24.33;;
9176;SDS011;4623;54.310;10.112;2022-11-15T01:52:20;32.47;;;25.70;;
9176;SDS011;4623;54.310;10.112;2022-11-15T01:54:49;27.53;;;21.90;;
9176;SDS011;4623;54.310;10.112;2022-11-15T01:57:20;27.20;;;21.40;;
9176;SDS011;4623;54.310;10.112;2022-11-15T01:59:46;28.17;;;22.73;;
9176;SDS011;4623;54.310;10.112;2022-11-15T02:02:12;29.80;;;23.07;;
9176;SDS011;4623;54.310;10.112;2022-11-15T02:04:45;27.60;;;22.00;;
9176;SDS011;4623;54.310;10.112;2022-11-15T02:07:13;25.73;;;20.73;;
9176;SDS011;4623;54.310;10.112;2022-11-15T02:09:42;30.60;;;23.23;;
9176;SDS011;4623;54.310;10.112;2022-11-15T02:12:09;27.50;;;23.93;;
9176;SDS011;4623;54.310;10.112;2022-11-15T02:14:36;25.60;;;20.50;;
9176;SDS011;4623;54.310;10.112;2022-11-15T02:19:49;26.10;;;19.50;;
9176;SDS011;4623;54.310;10.112;2022-11-15T02:30:35;26.13;;;22.90;;
9176;SDS011;4623;54.310;10.112;2022-11-15T02:33:26;29.23;;;23.47;;
9176;SDS011;4623;54.310;10.112;2022-11-15T02:36:14;26.90;;;22.27;;
9176;SDS011;4623;54.310;10.112;2022-11-15T02:39:00;26.30;;;22.00;;
9176;SDS011;4623;54.310;10.112;2022-11-15T02:41:39;28.87;;;22.67;;
9176;SDS011;4623;54.310;10.112;2022-11-15T02:44:17;24.23;;;19.93;;
9176;SDS011;4623;54.310;10.112;2022-11-15T02:47:00;26.00;;;21.17;;
9176;SDS011;4623;54.310;10.112;2022-11-15T02:49:38;27.73;;;22.87;;
9176;SDS011;4623;54.310;10.112;2022-11-15T02:52:06;25.23;;;20.13;;
9176;SDS011;4623;54.310;10.112;2022-11-15T02:54:32;27.60;;;22.20;;
9176;SDS011;4623;54.310;10.112;2022-11-15T02:57:02;26.83;;;21.27;;
9176;SDS011;4623;54.310;10.112;2022-11-15T02:59:50;30.87;;;22.47;;
9176;SDS011;4623;54.310;10.112;2022-11-15T03:05:22;29.27;;;22.67;;
9176;SDS011;4623;54.310;10.112;2022-11-15T03:08:10;31.30;;;23.80;;
9176;SDS011;4623;54.310;10.112;2022-11-15T03:11:13;26.97;;;20.83;;
9176;SDS011;4623;54.310;10.112;2022-11-15T03:22:06;24.37;;;20.17;;
9176;SDS011;4623;54.310;10.112;2022-11-15T03:24:36;28.33;;;21.07;;
9176;SDS011;4623;54.310;10.112;2022-11-15T03:27:03;27.80;;;22.17;;
9176;SDS011;4623;54.310;10.112;2022-11-15T03:29:32;27.23;;;21.80;;
9176;SDS011;4623;54.310;10.112;2022-11-15T03:32:09;27.17;;;22.20;;
9176;SDS011;4623;54.310;10.112;2022-11-15T03:34:47;24.53;;;20.47;;
9176;SDS011;4623;54.310;10.112;2022-11-15T03:37:30;30.10;;;22.73;;
9176;SDS011;4623;54.310;10.112;2022-11-15T03:39:59;27.97;;;22.03;;
9176;SDS011;4623;54.310;10.112;2022-11-15T03:45:17;26.87;;;20.97;;
9176;SDS011;4623;54.310;10.112;2022-11-15T03:47:49;30.27;;;21.53;;
9176;SDS011;4623;54.310;10.112;2022-11-15T03:50:19;24.33;;;20.47;;
9176;SDS011;4623;54.310;10.112;2022-11-15T03:52:47;28.80;;;23.03;;
9176;SDS011;4623;54.310;10.112;2022-11-15T03:55:15;26.73;;;20.60;;
9176;SDS011;4623;54.310;10.112;2022-11-15T03:57:46;28.63;;;21.10;;
9176;SDS011;4623;54.310;10.112;2022-11-15T04:00:16;27.40;;;21.33;;
9176;SDS011;4623;54.310;10.112;2022-11-15T04:02:42;26.57;;;22.07;;
9176;SDS011;4623;54.310;10.112;2022-11-15T04:05:08;27.83;;;21.37;;
9176;SDS011;4623;54.310;10.112;2022-11-15T04:07:33;27.97;;;22.27;;
9176;SDS011;4623;54.310;10.112;2022-11-15T04:09:59;27.80;;;21.67;;
9176;SDS011;4623;54.310;10.112;2022-11-15T04:12:28;23.50;;;19.80;;
9176;SDS011;4623;54.310;10.112;2022-11-15T04:17:35;28.23;;;21.60;;
9176;SDS011;4623;54.310;10.112;2022-11-15T04:20:07;28.63;;;21.67;;
9176;SDS011;4623;54.310;10.112;2022-11-15T04:22:52;24.70;;;21.27;;
9176;SDS011;4623;54.310;10.112;2022-11-15T04:25:41;26.53;;;22.20;;
9176;SDS011;4623;54.310;10.112;2022-11-15T04:28:08;27.73;;;20.30;;
9176;SDS011;4623;54.310;10.112;2022-11-15T04:30:34;28.70;;;23.17;;
9176;SDS011;4623;54.310;10.112;2022-11-15T04:32:59;23.63;;;19.77;;
9176;SDS011;4623;54.310;10.112;2022-11-15T04:35:25;24.93;;;20.93;;
9176;SDS011;4623;54.310;10.112;2022-11-15T04:37:51;21.90;;;18.83;;
9176;SDS011;4623;54.310;10.112;2022-11-15T04:40:16;23.67;;;19.13;;
9176;SDS011;4623;54.310;10.112;2022-11-15T04:42:42;28.57;;;23.07;;
9176;SDS011;4623;54.310;10.112;2022-11-15T04:45:08;26.13;;;20.63;;
9176;SDS011;4623;54.310;10.112;2022-11-15T04:47:34;28.73;;;22.27;;
9176;SDS011;4623;54.310;10.112;2022-11-15T04:50:00;23.83;;;19.93;;
9176;SDS011;4623;54.310;10.112;2022-11-15T04:52:26;24.17;;;19.70;;
9176;SDS011;4623;54.310;10.112;2022-11-15T04:54:51;24.63;;;20.53;;
9176;SDS011;4623;54.310;10.112;2022-11-15T04:57:17;23.57;;;19.47;;
9176;SDS011;4623;54.310;10.112;2022-11-15T04:59:43;25.10;;;20.13;;
9176;SDS011;4623;54.310;10.112;2022-11-15T05:02:08;27.97;;;21.30;;
9176;SDS011;4623;54.310;10.112;2022-11-15T05:04:34;23.77;;;19.77;;
9176;SDS011;4623;54.310;10.112;2022-11-15T05:07:00;27.77;;;22.63;;
9176;SDS011;4623;54.310;10.112;2022-11-15T05:09:25;25.57;;;20.50;;
9176;SDS011;4623;54.310;10.112;2022-11-15T05:11:51;28.73;;;21.97;;
9176;SDS011;4623;54.310;10.112;2022-11-15T05:14:16;24.33;;;20.83;;
9176;SDS011;4623;54.310;10.112;2022-11-15T05:16:42;24.27;;;20.53;;
9176;SDS011;4623;54.310;10.112;2022-11-15T05:19:08;25.20;;;20.57;;
9176;SDS011;4623;54.310;10.112;2022-11-15T05:21:34;27.23;;;21.80;;
9176;SDS011;4623;54.310;10.112;2022-11-15T05:24:00;26.33;;;22.60;;
9176;SDS011;4623;54.310;10.112;2022-11-15T05:26:26;24.03;;;20.50;;
9176;SDS011;4623;54.310;10.112;2022-11-15T05:28:53;24.17;;;20.20;;
9176;SDS011;4623;54.310;10.112;2022-11-15T05:31:20;24.50;;;19.40;;
9176;SDS011;4623;54.310;10.112;2022-11-15T05:33:45;20.30;;;17.67;;
9176;SDS011;4623;54.310;10.112;2022-11-15T05:36:20;21.47;;;19.13;;
9176;SDS011;4623;54.310;10.112;2022-11-15T05:38:52;24.10;;;18.63;;
9176;SDS011;4623;54.310;10.112;2022-11-15T05:41:19;21.23;;;18.63;;
9176;SDS011;4623;54.310;10.112;2022-11-15T05:44:06;20.03;;;17.13;;
9176;SDS011;4623;54.310;10.112;2022-11-15T05:46:34;20.77;;;16.90;;
9176;SDS011;4623;54.310;10.112;2022-11-15T05:49:02;18.17;;;15.67;;
9176;SDS011;4623;54.310;10.112;2022-11-15T05:51:31;17.67;;;15.77;;
9176;SDS011;4623;54.310;10.112;2022-11-15T05:53:57;20.10;;;16.10;;
9176;SDS011;4623;54.310;10.112;2022-11-15T05:56:24;18.73;;;15.73;;
9176;SDS011;4623;54.310;10.112;2022-11-15T05:58:51;19.63;;;16.93;;
9176;SDS011;4623;54.310;10.112;2022-11-15T06:01:19;18.87;;;16.43;;
9176;SDS011;4623;54.310;10.112;2022-11-15T06:03:44;18.80;;;16.40;;
9176;SDS011;4623;54.310;10.112;2022-11-15T06:06:10;19.73;;;16.80;;
9176;SDS011;4623;54.310;10.112;2022-11-15T06:08:35;18.63;;;16.33;;
9176;SDS011;4623;54.310;10.112;2022-11-15T06:11:05;19.63;;;16.53;;
9176;SDS011;4623;54.310;10.112;2022-11-15T06:13:31;21.43;;;17.77;;
9176;SDS011;4623;54.310;10.112;2022-11-15T06:15:57;22.97;;;18.87;;
9176;SDS011;4623;54.310;10.112;2022-11-15T06:18:23;24.00;;;19.63;;
9176;SDS011;4623;54.310;10.112;2022-11-15T06:20:49;29.37;;;22.17;;
9176;SDS011;4623;54.310;10.112;2022-11-15T06:23:14;24.40;;;18.63;;
9176;SDS011;4623;54.310;10.112;2022-11-15T06:25:40;26.13;;;20.97;;
9176;SDS011;4623;54.310;10.112;2022-11-15T06:28:05;26.07;;;19.37;;
9176;SDS011;4623;54.310;10.112;2022-11-15T06:30:31;25.43;;;19.53;;
9176;SDS011;4623;54.310;10.112;2022-11-15T06:33:01;20.80;;;16.67;;
9176;SDS011;4623;54.310;10.112;2022-11-15T06:35:27;23.83;;;17.83;;
9176;SDS011;4623;54.310;10.112;2022-11-15T06:37:53;21.93;;;17.30;;
9176;SDS011;4623;54.310;10.112;2022-11-15T06:40:20;22.23;;;16.47;;
9176;SDS011;4623;54.310;10.112;2022-11-15T06:42:46;19.20;;;16.30;;
9176;SDS011;4623;54.310;10.112;2022-11-15T06:45:12;22.83;;;16.77;;
9176;SDS011;4623;54.310;10.112;2022-11-15T06:47:46;19.10;;;16.40;;
9176;SDS011;4623;54.310;10.112;2022-11-15T06:50:12;20.67;;;17.57;;
9176;SDS011;4623;54.310;10.112;2022-11-15T06:52:38;22.10;;;17.93;;
9176;SDS011;4623;54.310;10.112;2022-11-15T06:55:04;28.03;;;21.17;;
9176;SDS011;4623;54.310;10.112;2022-11-15T06:57:30;21.17;;;18.73;;
9176;SDS011;4623;54.310;10.112;2022-11-15T06:59:57;20.87;;;18.07;;
9176;SDS011;4623;54.310;10.112;2022-11-15T07:02:22;20.37;;;16.77;;
9176;SDS011;4623;54.310;10.112;2022-11-15T07:04:48;21.90;;;19.13;;
9176;SDS011;4623;54.310;10.112;2022-11-15T07:07:14;21.90;;;17.30;;
9176;SDS011;4623;54.310;10.112;2022-11-15T07:09:39;18.33;;;16.43;;
9176;SDS011;4623;54.310;10.112;2022-11-15T07:12:05;20.13;;;17.37;;
9176;SDS011;4623;54.310;10.112;2022-11-15T07:14:31;21.43;;;18.40;;
9176;SDS011;4623;54.310;10.112;2022-11-15T07:16:56;20.43;;;16.83;;
9176;SDS011;4623;54.310;10.112;2022-11-15T07:19:22;22.33;;;17.80;;
9176;SDS011;4623;54.310;10.112;2022-11-15T07:21:48;17.97;;;16.03;;
9176;SDS011;4623;54.310;10.112;2022-11-15T07:24:13;22.57;;;18.20;;
9176;SDS011;4623;54.310;10.112;2022-11-15T07:26:39;22.33;;;17.70;;
9176;SDS011;4623;54.310;10.112;2022-11-15T07:29:04;20.50;;;17.10;;
9176;SDS011;4623;54.310;10.112;2022-11-15T07:31:30;18.60;;;16.60;;
9176;SDS011;4623;54.310;10.112;2022-11-15T07:33:56;20.13;;;17.47;;
9176;SDS011;4623;54.310;10.112;2022-11-15T07:36:22;19.50;;;17.40;;
9176;SDS011;4623;54.310;10.112;2022-11-15T07:38:47;21.93;;;18.33;;
9176;SDS011;4623;54.310;10.112;2022-11-15T07:41:13;21.33;;;17.80;;
9176;SDS011;4623;54.310;10.112;2022-11-15T07:43:38;18.80;;;15.80;;
9176;SDS011;4623;54.310;10.112;2022-11-15T07:46:08;24.30;;;19.10;;
9176;SDS011;4623;54.310;10.112;2022-11-15T07:48:34;17.80;;;15.57;;
9176;SDS011;4623;54.310;10.112;2022-11-15T07:51:01;20.83;;;18.63;;
9176;SDS011;4623;54.310;10.112;2022-11-15T07:53:27;20.40;;;18.20;;
9176;SDS011;4623;54.310;10.112;2022-11-15T07:55:52;20.07;;;17.67;;
9176;SDS011;4623;54.310;10.112;2022-11-15T07:58:18;19.27;;;17.27;;
9176;SDS011;4623;54.310;10.112;2022-11-15T08:00:44;19.60;;;17.00;;
9176;SDS011;4623;54.310;10.112;2022-11-15T08:03:11;19.77;;;16.07;;
9176;SDS011;4623;54.310;10.112;2022-11-15T08:05:38;20.97;;;17.20;;
9176;SDS011;4623;54.310;10.112;2022-11-15T08:08:05;19.03;;;16.87;;
9176;SDS011;4623;54.310;10.112;2022-11-15T08:10:31;19.67;;;17.57;;
9176;SDS011;4623;54.310;10.112;2022-11-15T08:12:58;16.97;;;15.17;;
9176;SDS011;4623;54.310;10.112;2022-11-15T08:15:34;19.03;;;15.90;;
9176;SDS011;4623;54.310;10.112;2022-11-15T08:18:05;19.70;;;16.80;;
9176;SDS011;4623;54.310;10.112;2022-11-15T08:20:33;17.67;;;15.77;;
9176;SDS011;4623;54.310;10.112;2022-11-15T08:23:00;17.70;;;15.37;;
9176;SDS011;4623;54.310;10.112;2022-11-15T08:25:28;17.10;;;15.27;;
9176;SDS011;4623;54.310;10.112;2022-11-15T08:27:56;17.93;;;16.03;;
9176;SDS011;4623;54.310;10.112;2022-11-15T08:30:23;22.33;;;17.23;;
9176;SDS011;4623;54.310;10.112;2022-11-15T08:32:49;20.30;;;18.03;;
9176;SDS011;4623;54.310;10.112;2022-11-15T08:35:17;19.07;;;16.23;;
9176;SDS011;4623;54.310;10.112;2022-11-15T08:37:43;18.77;;;15.57;;
9176;SDS011;4623;54.310;10.112;2022-11-15T08:40:09;19.97;;;15.83;;
9176;SDS011;4623;54.310;10.112;2022-11-15T08:42:35;19.70;;;16.67;;
9176;SDS011;4623;54.310;10.112;2022-11-15T08:45:01;20.17;;;15.57;;
9176;SDS011;4623;54.310;10.112;2022-11-15T08:47:27;18.10;;;15.33;;
9176;SDS011;4623;54.310;10.112;2022-11-15T08:49:53;16.17;;;14.50;;
9176;SDS011;4623;54.310;10.112;2022-11-15T08:52:18;16.40;;;14.53;;
9176;SDS011;4623;54.310;10.112;2022-11-15T08:54:45;18.40;;;15.50;;
9176;SDS011;4623;54.310;10.112;2022-11-15T08:57:11;17.53;;;15.23;;
9176;SDS011;4623;54.310;10.112;2022-11-15T08:59:37;17.40;;;15.27;;
9176;SDS011;4623;54.310;10.112;2022-11-15T09:02:03;19.43;;;14.40;;
9176;SDS011;4623;54.310;10.112;2022-11-15T09:04:29;18.93;;;15.97;;
9176;SDS011;4623;54.310;10.112;2022-11-15T09:06:55;16.83;;;14.97;;
9176;SDS011;4623;54.310;10.112;2022-11-15T09:09:21;16.90;;;15.10;;
9176;SDS011;4623;54.310;10.112;2022-11-15T09:11:46;14.73;;;12.60;;
9176;SDS011;4623;54.310;10.112;2022-11-15T09:14:12;17.13;;;15.03;;
9176;SDS011;4623;54.310;10.112;2022-11-15T09:16:39;17.23;;;14.47;;
9176;SDS011;4623;54.310;10.112;2022-11-15T09:19:04;16.93;;;15.20;;
9176;SDS011;4623;54.310;10.112;2022-11-15T09:21:31;16.47;;;14.70;;
9176;SDS011;4623;54.310;10.112;2022-11-15T09:23:56;14.73;;;13.23;;
9176;SDS011;4623;54.310;10.112;2022-11-15T09:26:22;19.90;;;16.13;;
9176;SDS011;4623;54.310;10.112;2022-11-15T09:28:48;18.63;;;14.50;;
9176;SDS011;4623;54.310;10.112;2022-11-15T09:31:13;17.37;;;15.20;;
9176;SDS011;4623;54.310;10.112;2022-11-15T09:33:39;17.77;;;13.77;;
9176;SDS011;4623;54.310;10.112;2022-11-15T09:36:08;14.23;;;12.73;;
9176;SDS011;4623;54.310;10.112;2022-11-15T09:38:35;14.33;;;12.87;;
9176;SDS011;4623;54.310;10.112;2022-11-15T09:49:52;16.47;;;14.70;;
9176;SDS011;4623;54.310;10.112;2022-11-15T09:52:19;16.67;;;12.67;;
9176;SDS011;4623;54.310;10.112;2022-11-15T09:54:49;13.63;;;12.20;;
9176;SDS011;4623;54.310;10.112;2022-11-15T10:05:48;13.73;;;11.93;;
9176;SDS011;4623;54.310;10.112;2022-11-15T10:10:59;12.90;;;11.53;;
9176;SDS011;4623;54.310;10.112;2022-11-15T10:13:31;13.93;;;12.13;;
9176;SDS011;4623;54.310;10.112;2022-11-15T10:24:50;14.53;;;12.47;;
9176;SDS011;4623;54.310;10.112;2022-11-15T10:27:25;13.33;;;11.70;;
9176;SDS011;4623;54.310;10.112;2022-11-15T10:29:51;13.33;;;11.20;;
9176;SDS011;4623;54.310;10.112;2022-11-15T10:32:17;14.87;;;12.13;;
9176;SDS011;4623;54.310;10.112;2022-11-15T10:34:43;12.23;;;10.93;;
9176;SDS011;4623;54.310;10.112;2022-11-15T10:37:10;13.17;;;10.73;;
9176;SDS011;4623;54.310;10.112;2022-11-15T10:39:36;11.93;;;10.73;;
9176;SDS011;4623;54.310;10.112;2022-11-15T10:42:14;12.37;;;11.07;;
9176;SDS011;4623;54.310;10.112;2022-11-15T10:44:42;15.90;;;12.97;;
9176;SDS011;4623;54.310;10.112;2022-11-15T10:50:07;13.17;;;11.80;;
9176;SDS011;4623;54.310;10.112;2022-11-15T10:52:52;14.97;;;13.37;;
9176;SDS011;4623;54.310;10.112;2022-11-15T10:55:22;12.00;;;10.43;;
9176;SDS011;4623;54.310;10.112;2022-11-15T10:58:40;13.37;;;11.97;;
9176;SDS011;4623;54.310;10.112;2022-11-15T11:00:48;12.53;;;11.23;;
9176;SDS011;4623;54.310;10.112;2022-11-15T11:03:24;10.70;;;9.67;;
9176;SDS011;4623;54.310;10.112;2022-11-15T11:06:07;11.83;;;10.73;;
9176;SDS011;4623;54.310;10.112;2022-11-15T11:08:33;11.27;;;10.07;;
9176;SDS011;4623;54.310;10.112;2022-11-15T11:11:00;11.40;;;9.93;;
9176;SDS011;4623;54.310;10.112;2022-11-15T11:13:28;11.10;;;10.00;;
9176;SDS011;4623;54.310;10.112;2022-11-15T11:21:25;11.10;;;10.00;;
9176;SDS011;4623;54.310;10.112;2022-11-15T11:24:24;10.27;;;9.23;;
9176;SDS011;4623;54.310;10.112;2022-11-15T11:29:56;14.40;;;11.57;;
9176;SDS011;4623;54.310;10.112;2022-11-15T11:35:12;12.30;;;11.10;;
9176;SDS011;4623;54.310;10.112;2022-11-15T11:50:30;12.77;;;11.47;;
9176;SDS011;4623;54.310;10.112;2022-11-15T11:53:04;14.80;;;12.77;;
9176;SDS011;4623;54.310;10.112;2022-11-15T11:55:52;13.87;;;11.73;;
9176;SDS011;4623;54.310;10.112;2022-11-15T11:58:33;13.70;;;12.30;;
9176;SDS011;4623;54.310;10.112;2022-11-15T12:03:55;13.00;;;11.80;;
9176;SDS011;4623;54.310;10.112;2022-11-15T12:09:32;12.80;;;11.30;;
9176;SDS011;4623;54.310;10.112;2022-11-15T12:12:13;13.13;;;11.80;;
9176;SDS011;4623;54.310;10.112;2022-11-15T12:14:50;13.57;;;11.43;;
9176;SDS011;4623;54.310;10.112;2022-11-15T12:17:21;11.77;;;10.60;;
9176;SDS011;4623;54.310;10.112;2022-11-15T12:19:49;14.13;;;12.63;;
9176;SDS011;4623;54.310;10.112;2022-11-15T12:22:20;12.93;;;11.40;;
9176;SDS011;4623;54.310;10.112;2022-11-15T12:25:08;12.43;;;11.10;;
9176;SDS011;4623;54.310;10.112;2022-11-15T12:30:29;15.30;;;12.57;;
9176;SDS011;4623;54.310;10.112;2022-11-15T12:33:14;10.97;;;9.97;;
9176;SDS011;4623;54.310;10.112;2022-11-15T12:36:10;13.53;;;11.77;;
9176;SDS011;4623;54.310;10.112;2022-11-15T12:39:21;12.43;;;11.13;;
9176;SDS011;4623;54.310;10.112;2022-11-15T12:41:24;11.87;;;10.63;;
9176;SDS011;4623;54.310;10.112;2022-11-15T12:43:52;14.00;;;12.13;;
9176;SDS011;4623;54.310;10.112;2022-11-15T12:59:48;13.43;;;12.03;;
9176;SDS011;4623;54.310;10.112;2022-11-15T13:31:01;13.30;;;11.90;;
9176;SDS011;4623;54.310;10.112;2022-11-15T13:33:39;13.63;;;11.40;;
9176;SDS011;4623;54.310;10.112;2022-11-15T13:38:42;12.17;;;10.97;;
9176;SDS011;4623;54.310;10.112;2022-11-15T13:41:16;10.70;;;9.60;;
9176;SDS011;4623;54.310;10.112;2022-11-15T13:43:45;14.07;;;11.47;;
9176;SDS011;4623;54.310;10.112;2022-11-15T13:48:48;12.40;;;9.40;;
9176;SDS011;4623;54.310;10.112;2022-11-15T13:51:24;9.97;;;8.97;;
9176;SDS011;4623;54.310;10.112;2022-11-15T13:56:38;9.60;;;8.60;;
9176;SDS011;4623;54.310;10.112;2022-11-15T13:59:21;9.83;;;8.83;;
9176;SDS011;4623;54.310;10.112;2022-11-15T14:01:51;9.40;;;8.47;;
9176;SDS011;4623;54.310;10.112;2022-11-15T14:04:18;9.13;;;8.07;;
9176;SDS011;4623;54.310;10.112;2022-11-15T14:06:54;8.40;;;7.60;;
9176;SDS011;4623;54.310;10.112;2022-11-15T14:11:52;12.10;;;9.87;;
9176;SDS011;4623;54.310;10.112;2022-11-15T14:14:20;8.87;;;7.93;;
9176;SDS011;4623;54.310;10.112;2022-11-15T14:16:49;9.13;;;8.23;;
9176;SDS011;4623;54.310;10.112;2022-11-15T14:24:39;8.83;;;8.00;;
9176;SDS011;4623;54.310;10.112;2022-11-15T14:27:24;10.33;;;9.20;;
9176;SDS011;4623;54.310;10.112;2022-11-15T14:29:53;9.77;;;8.77;;
9176;SDS011;4623;54.310;10.112;2022-11-15T14:32:22;11.40;;;10.27;;
9176;SDS011;4623;54.310;10.112;2022-11-15T14:34:58;13.60;;;9.93;;
9176;SDS011;4623;54.310;10.112;2022-11-15T14:37:26;10.23;;;9.23;;
9176;SDS011;4623;54.310;10.112;2022-11-15T14:39:52;9.47;;;8.43;;
9176;SDS011;4623;54.310;10.112;2022-11-15T14:42:18;11.53;;;10.03;;
9176;SDS011;4623;54.310;10.112;2022-11-15T14:44:45;10.20;;;9.27;;
9176;SDS011;4623;54.310;10.112;2022-11-15T14:47:10;12.83;;;10.57;;
9176;SDS011;4623;54.310;10.112;2022-11-15T14:49:36;10.60;;;9.50;;
9176;SDS011;4623;54.310;10.112;2022-11-15T14:52:02;9.73;;;8.73;;
9176;SDS011;4623;54.310;10.112;2022-11-15T14:54:30;10.90;;;9.40;;
9176;SDS011;4623;54.310;10.112;2022-11-15T14:56:55;12.30;;;9.57;;
9176;SDS011;4623;54.310;10.112;2022-11-15T14:59:21;12.17;;;9.63;;
9176;SDS011;4623;54.310;10.112;2022-11-15T15:01:46;17.30;;;9.10;;
9176;SDS011;4623;54.310;10.112;2022-11-15T15:04:12;10.23;;;9.17;;
9176;SDS011;4623;54.310;10.112;2022-11-15T15:06:37;11.43;;;9.97;;
9176;SDS011;4623;54.310;10.112;2022-11-15T15:09:03;10.07;;;9.07;;
9176;SDS011;4623;54.310;10.112;2022-11-15T15:11:31;12.40;;;10.07;;
9176;SDS011;4623;54.310;10.112;2022-11-15T15:13:58;11.60;;;8.97;;
9176;SDS011;4623;54.310;10.112;2022-11-15T15:16:26;11.10;;;10.00;;
9176;SDS011;4623;54.310;10.112;2022-11-15T15:18:52;10.87;;;9.87;;
9176;SDS011;4623;54.310;10.112;2022-11-15T15:21:27;14.80;;;11.77;;
9176;SDS011;4623;54.310;10.112;2022-11-15T15:23:53;11.70;;;9.83;;
9176;SDS011;4623;54.310;10.112;2022-11-15T15:26:20;10.27;;;8.90;;
9176;SDS011;4623;54.310;10.112;2022-11-15T15:28:46;14.17;;;10.10;;
9176;SDS011;4623;54.310;10.112;2022-11-15T15:31:13;12.33;;;9.43;;
9176;SDS011;4623;54.310;10.112;2022-11-15T15:33:39;10.73;;;9.63;;
9176;SDS011;4623;54.310;10.112;2022-11-15T15:36:07;9.90;;;8.90;;
9176;SDS011;4623;54.310;10.112;2022-11-15T15:38:37;12.67;;;9.23;;
9176;SDS011;4623;54.310;10.112;2022-11-15T15:41:08;11.13;;;9.10;;
9176;SDS011;4623;54.310;10.112;2022-11-15T15:43:36;9.70;;;8.70;;
9176;SDS011;4623;54.310;10.112;2022-11-15T15:46:02;10.60;;;9.60;;
9176;SDS011;4623;54.310;10.112;2022-11-15T15:48:28;9.57;;;8.67;;
9176;SDS011;4623;54.310;10.112;2022-11-15T15:50:53;8.97;;;8.07;;
9176;SDS011;4623;54.310;10.112;2022-11-15T15:53:19;10.83;;;9.27;;
9176;SDS011;4623;54.310;10.112;2022-11-15T15:55:45;11.27;;;9.67;;
9176;SDS011;4623;54.310;10.112;2022-11-15T15:58:10;9.90;;;8.83;;
9176;SDS011;4623;54.310;10.112;2022-11-15T16:00:36;10.47;;;9.43;;
9176;SDS011;4623;54.310;10.112;2022-11-15T16:03:02;10.27;;;9.20;;
9176;SDS011;4623;54.310;10.112;2022-11-15T16:05:27;10.73;;;9.37;;
9176;SDS011;4623;54.310;10.112;2022-11-15T16:07:53;10.00;;;9.00;;
9176;SDS011;4623;54.310;10.112;2022-11-15T16:10:24;11.83;;;9.23;;
9176;SDS011;4623;54.310;10.112;2022-11-15T16:12:52;11.70;;;10.43;;
9176;SDS011;4623;54.310;10.112;2022-11-15T16:15:19;10.50;;;8.60;;
9176;SDS011;4623;54.310;10.112;2022-11-15T16:18:04;10.03;;;9.03;;
9176;SDS011;4623;54.310;10.112;2022-11-15T16:20:37;9.33;;;7.90;;
9176;SDS011;4623;54.310;10.112;2022-11-15T16:23:05;8.73;;;7.63;;
9176;SDS011;4623;54.310;10.112;2022-11-15T16:25:34;9.03;;;8.13;;
9176;SDS011;4623;54.310;10.112;2022-11-15T16:28:20;9.83;;;8.00;;
9176;SDS011;4623;54.310;10.112;2022-11-15T16:33:26;9.80;;;8.80;;
9176;SDS011;4623;54.310;10.112;2022-11-15T16:35:52;9.97;;;8.50;;
9176;SDS011;4623;54.310;10.112;2022-11-15T16:38:17;11.60;;;10.40;;
9176;SDS011;4623;54.310;10.112;2022-11-15T16:40:43;10.80;;;8.77;;
9176;SDS011;4623;54.310;10.112;2022-11-15T16:43:09;10.87;;;9.77;;
9176;SDS011;4623;54.310;10.112;2022-11-15T16:45:35;18.53;;;11.17;;
9176;SDS011;4623;54.310;10.112;2022-11-15T16:48:01;11.90;;;10.70;;
9176;SDS011;4623;54.310;10.112;2022-11-15T16:50:29;13.17;;;11.33;;
9176;SDS011;4623;54.310;10.112;2022-11-15T16:52:57;12.83;;;10.97;;
9176;SDS011;4623;54.310;10.112;2022-11-15T16:55:24;11.40;;;9.73;;
9176;SDS011;4623;54.310;10.112;2022-11-15T16:57:52;12.17;;;10.87;;
9176;SDS011;4623;54.310;10.112;2022-11-15T17:00:19;12.57;;;10.30;;
9176;SDS011;4623;54.310;10.112;2022-11-15T17:02:46;10.90;;;8.83;;
9176;SDS011;4623;54.310;10.112;2022-11-15T17:05:12;10.87;;;9.83;;
9176;SDS011;4623;54.310;10.112;2022-11-15T17:07:39;11.03;;;9.87;;
9176;SDS011;4623;54.310;10.112;2022-11-15T17:10:06;11.03;;;9.93;;
9176;SDS011;4623;54.310;10.112;2022-11-15T17:12:33;11.67;;;10.57;;
9176;SDS011;4623;54.310;10.112;2022-11-15T17:15:00;11.53;;;10.40;;
9176;SDS011;4623;54.310;10.112;2022-11-15T17:17:26;11.53;;;10.43;;
9176;SDS011;4623;54.310;10.112;2022-11-15T17:19:52;12.20;;;11.00;;
9176;SDS011;4623;54.310;10.112;2022-11-15T17:22:18;16.87;;;13.90;;
9176;SDS011;4623;54.310;10.112;2022-11-15T17:24:45;15.87;;;12.77;;